sensor_id;sensor_type;location;lat;lon;timestamp;temperature;humidity
22503;DHT22;11418;48.118;9.992;2023-03-14T00:03:28;8.60;99.90
22503;DHT22;11418;48.118;9.992;2023-03-14T00:07:29;8.70;99.90
22503;DHT22;11418;48.118;9.992;2023-03-14T00:11:37;9.00;99.90
22503;DHT22;11418;48.118;9.992;2023-03-14T00:15:39;8.50;99.90
22503;DHT22;11418;48.118;9.992;2023-03-14T00:19:39;8.90;99.90
22503;DHT22;11418;48.118;9.992;2023-03-14T00:23:41;8.40;99.90
22503;DHT22;11418;48.118;9.992;2023-03-14T00:27:42;8.70;99.90
22503;DHT22;11418;48.118;9.992;2023-03-14T00:31:42;8.30;99.90
22503;DHT22;11418;48.118;9.992;2023-03-14T00:35:43;9.20;99.90
22503;DHT22;11418;48.118;9.992;2023-03-14T00:39:44;8.60;99.90
22503;DHT22;11418;48.118;9.992;2023-03-14T00:43:44;8.40;99.90
22503;DHT22;11418;48.118;9.992;2023-03-14T00:47:45;8.40;99.90
22503;DHT22;11418;48.118;9.992;2023-03-14T00:51:46;8.50;99.90
22503;DHT22;11418;48.118;9.992;2023-03-14T00:55:46;8.50;99.90
22503;DHT22;11418;48.118;9.992;2023-03-14T00:59:47;8.30;99.90
22503;DHT22;11418;48.118;9.992;2023-03-14T01:03:51;8.60;99.90
22503;DHT22;11418;48.118;9.992;2023-03-14T01:07:52;8.30;99.90
22503;DHT22;11418;48.118;9.992;2023-03-14T01:11:52;8.40;99.90
22503;DHT22;11418;48.118;9.992;2023-03-14T01:15:53;8.80;99.90
22503;DHT22;11418;48.118;9.992;2023-03-14T01:19:53;8.00;99.90
22503;DHT22;11418;48.118;9.992;2023-03-14T01:23:57;7.90;99.90
22503;DHT22;11418;48.118;9.992;2023-03-14T01:27:58;8.40;99.90
22503;DHT22;11418;48.118;9.992;2023-03-14T01:31:58;8.10;99.90
22503;DHT22;11418;48.118;9.992;2023-03-14T01:35:59;7.90;99.90
22503;DHT22;11418;48.118;9.992;2023-03-14T01:40:02;8.10;99.90
22503;DHT22;11418;48.118;9.992;2023-03-14T01:44:04;8.10;99.90
22503;DHT22;11418;48.118;9.992;2023-03-14T01:48:04;8.00;99.90
22503;DHT22;11418;48.118;9.992;2023-03-14T01:52:10;8.00;99.90
22503;DHT22;11418;48.118;9.992;2023-03-14T01:56:13;7.70;99.90
22503;DHT22;11418;48.118;9.992;2023-03-14T02:00:19;7.80;99.90
22503;DHT22;11418;48.118;9.992;2023-03-14T02:04:21;8.10;99.90
22503;DHT22;11418;48.118;9.992;2023-03-14T02:08:22;7.80;99.90
22503;DHT22;11418;48.118;9.992;2023-03-14T02:12:24;7.80;99.90
22503;DHT22;11418;48.118;9.992;2023-03-14T02:16:25;7.80;99.90
22503;DHT22;11418;48.118;9.992;2023-03-14T02:20:45;8.00;99.90
22503;DHT22;11418;48.118;9.992;2023-03-14T02:25:13;8.00;99.90
22503;DHT22;11418;48.118;9.992;2023-03-14T02:29:16;7.60;99.90
22503;DHT22;11418;48.118;9.992;2023-03-14T02:38:31;7.80;99.90
22503;DHT22;11418;48.118;9.992;2023-03-14T02:42:33;7.70;99.90
22503;DHT22;11418;48.118;9.992;2023-03-14T02:46:34;7.70;99.90
22503;DHT22;11418;48.118;9.992;2023-03-14T02:50:35;7.70;99.90
22503;DHT22;11418;48.118;9.992;2023-03-14T02:54:35;7.60;99.90
22503;DHT22;11418;48.118;9.992;2023-03-14T02:58:36;7.50;99.90
22503;DHT22;11418;48.118;9.992;2023-03-14T03:02:37;7.60;99.90
22503;DHT22;11418;48.118;9.992;2023-03-14T03:06:37;7.60;99.90
22503;DHT22;11418;48.118;9.992;2023-03-14T03:10:38;7.60;99.90
22503;DHT22;11418;48.118;9.992;2023-03-14T03:14:38;7.60;99.90
22503;DHT22;11418;48.118;9.992;2023-03-14T03:18:39;7.60;99.90
22503;DHT22;11418;48.118;9.992;2023-03-14T03:22:39;7.50;99.90
22503;DHT22;11418;48.118;9.992;2023-03-14T03:26:40;7.50;99.90
22503;DHT22;11418;48.118;9.992;2023-03-14T03:30:41;7.60;99.90
22503;DHT22;11418;48.118;9.992;2023-03-14T03:34:42;7.40;99.90
22503;DHT22;11418;48.118;9.992;2023-03-14T03:38:42;7.50;99.90
22503;DHT22;11418;48.118;9.992;2023-03-14T03:42:43;7.40;99.90
22503;DHT22;11418;48.118;9.992;2023-03-14T03:46:43;7.40;99.90
22503;DHT22;11418;48.118;9.992;2023-03-14T03:50:45;7.40;99.90
22503;DHT22;11418;48.118;9.992;2023-03-14T03:54:46;7.20;99.90
22503;DHT22;11418;48.118;9.992;2023-03-14T03:58:47;7.40;99.90
22503;DHT22;11418;48.118;9.992;2023-03-14T04:02:47;7.30;99.90
22503;DHT22;11418;48.118;9.992;2023-03-14T04:06:48;7.40;99.90
22503;DHT22;11418;48.118;9.992;2023-03-14T04:10:48;7.30;99.90
22503;DHT22;11418;48.118;9.992;2023-03-14T04:14:49;7.30;99.90
22503;DHT22;11418;48.118;9.992;2023-03-14T04:18:50;7.30;99.90
22503;DHT22;11418;48.118;9.992;2023-03-14T04:22:50;7.30;99.90
22503;DHT22;11418;48.118;9.992;2023-03-14T04:26:51;7.30;99.90
22503;DHT22;11418;48.118;9.992;2023-03-14T04:30:52;7.20;99.90
22503;DHT22;11418;48.118;9.992;2023-03-14T04:34:52;7.20;99.90
22503;DHT22;11418;48.118;9.992;2023-03-14T04:38:52;6.90;99.90
22503;DHT22;11418;48.118;9.992;2023-03-14T04:42:53;7.20;99.90
22503;DHT22;11418;48.118;9.992;2023-03-14T04:46:54;7.40;99.90
22503;DHT22;11418;48.118;9.992;2023-03-14T04:50:55;7.20;99.90
22503;DHT22;11418;48.118;9.992;2023-03-14T04:54:55;7.30;99.90
22503;DHT22;11418;48.118;9.992;2023-03-14T04:58:56;7.10;99.90
22503;DHT22;11418;48.118;9.992;2023-03-14T05:02:56;7.20;99.90
22503;DHT22;11418;48.118;9.992;2023-03-14T05:06:57;7.20;99.90
22503;DHT22;11418;48.118;9.992;2023-03-14T05:10:58;7.10;99.90
22503;DHT22;11418;48.118;9.992;2023-03-14T05:14:58;7.10;99.90
22503;DHT22;11418;48.118;9.992;2023-03-14T05:18:59;7.20;99.90
22503;DHT22;11418;48.118;9.992;2023-03-14T05:23:01;7.20;99.90
22503;DHT22;11418;48.118;9.992;2023-03-14T05:27:03;7.20;99.90
22503;DHT22;11418;48.118;9.992;2023-03-14T05:31:08;7.20;99.90
22503;DHT22;11418;48.118;9.992;2023-03-14T05:35:09;7.10;99.90
22503;DHT22;11418;48.118;9.992;2023-03-14T05:39:09;7.10;99.90
22503;DHT22;11418;48.118;9.992;2023-03-14T05:43:10;7.10;99.90
22503;DHT22;11418;48.118;9.992;2023-03-14T05:47:10;7.00;99.90
22503;DHT22;11418;48.118;9.992;2023-03-14T05:51:11;7.00;99.90
22503;DHT22;11418;48.118;9.992;2023-03-14T05:55:11;6.90;99.90
22503;DHT22;11418;48.118;9.992;2023-03-14T05:59:12;7.00;99.90
22503;DHT22;11418;48.118;9.992;2023-03-14T06:03:14;7.10;99.90
22503;DHT22;11418;48.118;9.992;2023-03-14T06:07:14;7.20;99.90
22503;DHT22;11418;48.118;9.992;2023-03-14T06:11:15;7.20;99.90
22503;DHT22;11418;48.118;9.992;2023-03-14T06:15:15;7.20;99.90
22503;DHT22;11418;48.118;9.992;2023-03-14T06:19:16;7.20;99.90
22503;DHT22;11418;48.118;9.992;2023-03-14T06:23:17;7.20;99.90
22503;DHT22;11418;48.118;9.992;2023-03-14T06:27:17;7.30;99.90
22503;DHT22;11418;48.118;9.992;2023-03-14T06:31:18;7.20;99.90
22503;DHT22;11418;48.118;9.992;2023-03-14T06:35:18;7.20;99.90
22503;DHT22;11418;48.118;9.992;2023-03-14T06:39:19;7.20;99.90
22503;DHT22;11418;48.118;9.992;2023-03-14T06:43:19;7.40;99.90
22503;DHT22;11418;48.118;9.992;2023-03-14T06:47:20;7.50;99.90
22503;DHT22;11418;48.118;9.992;2023-03-14T06:51:20;7.30;99.90
22503;DHT22;11418;48.118;9.992;2023-03-14T06:55:21;7.70;99.90
22503;DHT22;11418;48.118;9.992;2023-03-14T06:59:22;7.40;99.90
22503;DHT22;11418;48.118;9.992;2023-03-14T07:03:22;8.30;99.90
22503;DHT22;11418;48.118;9.992;2023-03-14T07:07:23;7.70;99.90
22503;DHT22;11418;48.118;9.992;2023-03-14T07:11:23;7.70;99.90
22503;DHT22;11418;48.118;9.992;2023-03-14T07:15:24;7.80;99.90
22503;DHT22;11418;48.118;9.992;2023-03-14T07:19:24;7.90;99.90
22503;DHT22;11418;48.118;9.992;2023-03-14T07:23:25;8.30;99.90
22503;DHT22;11418;48.118;9.992;2023-03-14T07:27:26;8.20;99.90
22503;DHT22;11418;48.118;9.992;2023-03-14T07:31:26;8.30;99.90
22503;DHT22;11418;48.118;9.992;2023-03-14T07:35:27;8.10;99.90
22503;DHT22;11418;48.118;9.992;2023-03-14T07:39:28;8.50;99.90
22503;DHT22;11418;48.118;9.992;2023-03-14T07:43:28;8.50;99.90
22503;DHT22;11418;48.118;9.992;2023-03-14T07:47:29;8.50;99.90
22503;DHT22;11418;48.118;9.992;2023-03-14T07:51:29;8.60;99.90
22503;DHT22;11418;48.118;9.992;2023-03-14T07:55:30;8.90;99.90
22503;DHT22;11418;48.118;9.992;2023-03-14T07:59:30;9.00;99.90
22503;DHT22;11418;48.118;9.992;2023-03-14T08:03:31;9.20;99.90
22503;DHT22;11418;48.118;9.992;2023-03-14T08:07:31;9.50;99.90
22503;DHT22;11418;48.118;9.992;2023-03-14T08:11:32;9.60;99.90
22503;DHT22;11418;48.118;9.992;2023-03-14T08:15:32;9.50;99.90
22503;DHT22;11418;48.118;9.992;2023-03-14T08:19:34;9.50;99.90
22503;DHT22;11418;48.118;9.992;2023-03-14T08:23:34;9.40;99.90
22503;DHT22;11418;48.118;9.992;2023-03-14T08:27:35;9.70;99.90
22503;DHT22;11418;48.118;9.992;2023-03-14T08:31:38;9.40;99.90
22503;DHT22;11418;48.118;9.992;2023-03-14T08:35:38;9.70;99.90
22503;DHT22;11418;48.118;9.992;2023-03-14T08:39:39;9.70;99.90
22503;DHT22;11418;48.118;9.992;2023-03-14T08:43:40;9.90;99.90
22503;DHT22;11418;48.118;9.992;2023-03-14T08:47:40;10.10;99.90
22503;DHT22;11418;48.118;9.992;2023-03-14T08:51:41;10.40;99.90
22503;DHT22;11418;48.118;9.992;2023-03-14T08:55:41;10.60;99.90
22503;DHT22;11418;48.118;9.992;2023-03-14T08:59:42;10.70;99.90
22503;DHT22;11418;48.118;9.992;2023-03-14T09:03:43;11.20;99.90
22503;DHT22;11418;48.118;9.992;2023-03-14T09:07:44;11.30;99.90
22503;DHT22;11418;48.118;9.992;2023-03-14T09:11:44;11.40;99.90
22503;DHT22;11418;48.118;9.992;2023-03-14T09:15:45;11.20;99.90
22503;DHT22;11418;48.118;9.992;2023-03-14T09:19:50;11.30;99.90
22503;DHT22;11418;48.118;9.992;2023-03-14T09:23:50;11.20;99.90
22503;DHT22;11418;48.118;9.992;2023-03-14T09:27:51;11.20;99.90
22503;DHT22;11418;48.118;9.992;2023-03-14T09:31:51;11.40;99.90
22503;DHT22;11418;48.118;9.992;2023-03-14T09:35:52;11.90;99.90
22503;DHT22;11418;48.118;9.992;2023-03-14T09:39:52;12.00;99.90
22503;DHT22;11418;48.118;9.992;2023-03-14T09:44:08;12.60;99.90
22503;DHT22;11418;48.118;9.992;2023-03-14T09:48:21;13.00;99.90
22503;DHT22;11418;48.118;9.992;2023-03-14T09:52:32;12.50;99.90
22503;DHT22;11418;48.118;9.992;2023-03-14T09:56:33;12.50;99.90
22503;DHT22;11418;48.118;9.992;2023-03-14T10:00:35;13.30;99.90
22503;DHT22;11418;48.118;9.992;2023-03-14T10:04:36;14.10;99.90
22503;DHT22;11418;48.118;9.992;2023-03-14T10:08:44;13.60;99.90
22503;DHT22;11418;48.118;9.992;2023-03-14T10:12:46;13.70;99.90
22503;DHT22;11418;48.118;9.992;2023-03-14T10:16:47;13.80;99.90
22503;DHT22;11418;48.118;9.992;2023-03-14T10:20:49;14.50;99.90
22503;DHT22;11418;48.118;9.992;2023-03-14T10:24:53;13.60;99.90
22503;DHT22;11418;48.118;9.992;2023-03-14T10:29:09;13.70;99.90
22503;DHT22;11418;48.118;9.992;2023-03-14T10:33:18;13.60;99.90
22503;DHT22;11418;48.118;9.992;2023-03-14T10:37:24;14.30;99.90
22503;DHT22;11418;48.118;9.992;2023-03-14T10:41:30;14.70;99.90
22503;DHT22;11418;48.118;9.992;2023-03-14T10:49:35;14.50;99.90
22503;DHT22;11418;48.118;9.992;2023-03-14T10:53:42;13.90;99.90
22503;DHT22;11418;48.118;9.992;2023-03-14T10:57:43;14.00;99.90
22503;DHT22;11418;48.118;9.992;2023-03-14T11:01:55;13.80;99.90
22503;DHT22;11418;48.118;9.992;2023-03-14T11:06:12;13.70;99.90
22503;DHT22;11418;48.118;9.992;2023-03-14T11:10:41;14.60;99.90
22503;DHT22;11418;48.118;9.992;2023-03-14T11:14:49;15.70;99.90
22503;DHT22;11418;48.118;9.992;2023-03-14T11:19:29;14.90;99.90
22503;DHT22;11418;48.118;9.992;2023-03-14T11:32:04;14.90;99.90
22503;DHT22;11418;48.118;9.992;2023-03-14T11:36:15;16.90;99.90
22503;DHT22;11418;48.118;9.992;2023-03-14T11:40:20;16.50;99.90
22503;DHT22;11418;48.118;9.992;2023-03-14T11:44:37;15.60;99.90
22503;DHT22;11418;48.118;9.992;2023-03-14T11:48:58;15.60;99.90
22503;DHT22;11418;48.118;9.992;2023-03-14T11:53:19;15.00;99.90
22503;DHT22;11418;48.118;9.992;2023-03-14T11:57:22;14.90;99.90
22503;DHT22;11418;48.118;9.992;2023-03-14T12:01:29;14.30;99.90
22503;DHT22;11418;48.118;9.992;2023-03-14T12:05:43;13.70;99.90
22503;DHT22;11418;48.118;9.992;2023-03-14T12:09:46;14.00;99.90
22503;DHT22;11418;48.118;9.992;2023-03-14T12:13:50;14.30;99.90
22503;DHT22;11418;48.118;9.992;2023-03-14T12:17:55;13.70;99.90
22503;DHT22;11418;48.118;9.992;2023-03-14T12:22:05;12.70;99.90
22503;DHT22;11418;48.118;9.992;2023-03-14T12:26:20;12.00;99.90
22503;DHT22;11418;48.118;9.992;2023-03-14T12:30:37;11.30;99.90
22503;DHT22;11418;48.118;9.992;2023-03-14T12:34:44;11.10;99.90
22503;DHT22;11418;48.118;9.992;2023-03-14T12:39:01;10.30;99.90
22503;DHT22;11418;48.118;9.992;2023-03-14T12:43:27;10.10;99.90
22503;DHT22;11418;48.118;9.992;2023-03-14T12:51:40;9.50;99.90
22503;DHT22;11418;48.118;9.992;2023-03-14T12:56:09;9.40;99.90
22503;DHT22;11418;48.118;9.992;2023-03-14T13:00:22;9.40;99.90
22503;DHT22;11418;48.118;9.992;2023-03-14T13:04:43;9.80;99.90
22503;DHT22;11418;48.118;9.992;2023-03-14T13:08:45;9.60;99.90
22503;DHT22;11418;48.118;9.992;2023-03-14T13:12:51;9.30;99.90
22503;DHT22;11418;48.118;9.992;2023-03-14T13:16:51;9.00;99.90
22503;DHT22;11418;48.118;9.992;2023-03-14T13:20:59;9.10;99.90
22503;DHT22;11418;48.118;9.992;2023-03-14T13:25:10;9.20;99.90
22503;DHT22;11418;48.118;9.992;2023-03-14T13:29:15;9.10;99.90
22503;DHT22;11418;48.118;9.992;2023-03-14T13:33:21;9.30;99.90
22503;DHT22;11418;48.118;9.992;2023-03-14T13:37:24;9.40;99.90
22503;DHT22;11418;48.118;9.992;2023-03-14T13:41:25;9.20;99.90
22503;DHT22;11418;48.118;9.992;2023-03-14T13:45:27;9.40;99.90
22503;DHT22;11418;48.118;9.992;2023-03-14T13:49:29;9.90;99.90
22503;DHT22;11418;48.118;9.992;2023-03-14T13:53:45;9.80;99.90
22503;DHT22;11418;48.118;9.992;2023-03-14T14:01:48;9.10;99.90
22503;DHT22;11418;48.118;9.992;2023-03-14T14:05:50;8.90;99.90
22503;DHT22;11418;48.118;9.992;2023-03-14T14:09:52;8.90;99.90
22503;DHT22;11418;48.118;9.992;2023-03-14T14:13:54;8.80;99.90
22503;DHT22;11418;48.118;9.992;2023-03-14T14:17:58;8.50;99.90
22503;DHT22;11418;48.118;9.992;2023-03-14T14:22:00;8.00;99.90
22503;DHT22;11418;48.118;9.992;2023-03-14T14:26:04;7.70;99.90
22503;DHT22;11418;48.118;9.992;2023-03-14T14:30:29;7.50;99.90
22503;DHT22;11418;48.118;9.992;2023-03-14T14:34:38;7.50;99.90
22503;DHT22;11418;48.118;9.992;2023-03-14T14:38:40;7.80;99.90
22503;DHT22;11418;48.118;9.992;2023-03-14T14:42:41;8.00;99.90
22503;DHT22;11418;48.118;9.992;2023-03-14T14:46:42;7.70;99.90
22503;DHT22;11418;48.118;9.992;2023-03-14T14:51:03;7.50;99.90
22503;DHT22;11418;48.118;9.992;2023-03-14T14:55:12;7.70;99.90
22503;DHT22;11418;48.118;9.992;2023-03-14T14:59:24;7.90;99.90
22503;DHT22;11418;48.118;9.992;2023-03-14T15:03:29;8.40;99.90
22503;DHT22;11418;48.118;9.992;2023-03-14T15:07:29;8.40;99.90
22503;DHT22;11418;48.118;9.992;2023-03-14T15:11:30;8.20;99.90
22503;DHT22;11418;48.118;9.992;2023-03-14T15:15:31;7.50;99.90
22503;DHT22;11418;48.118;9.992;2023-03-14T15:19:31;6.50;99.90
22503;DHT22;11418;48.118;9.992;2023-03-14T15:23:33;6.30;99.90
22503;DHT22;11418;48.118;9.992;2023-03-14T15:27:33;6.40;99.90
22503;DHT22;11418;48.118;9.992;2023-03-14T15:31:34;6.40;99.90
22503;DHT22;11418;48.118;9.992;2023-03-14T15:35:37;6.30;99.90
22503;DHT22;11418;48.118;9.992;2023-03-14T15:39:38;6.20;99.90
22503;DHT22;11418;48.118;9.992;2023-03-14T15:43:38;6.10;99.90
22503;DHT22;11418;48.118;9.992;2023-03-14T15:47:39;5.90;99.90
22503;DHT22;11418;48.118;9.992;2023-03-14T15:51:39;5.70;99.90
22503;DHT22;11418;48.118;9.992;2023-03-14T15:55:40;5.60;99.90
22503;DHT22;11418;48.118;9.992;2023-03-14T15:59:40;5.70;99.90
22503;DHT22;11418;48.118;9.992;2023-03-14T16:03:42;5.90;99.90
22503;DHT22;11418;48.118;9.992;2023-03-14T16:07:44;6.20;99.90
22503;DHT22;11418;48.118;9.992;2023-03-14T16:11:45;6.30;99.90
22503;DHT22;11418;48.118;9.992;2023-03-14T16:16:01;6.30;99.90
22503;DHT22;11418;48.118;9.992;2023-03-14T16:20:02;7.00;99.90
22503;DHT22;11418;48.118;9.992;2023-03-14T16:24:04;8.40;99.90
22503;DHT22;11418;48.118;9.992;2023-03-14T16:28:06;8.00;99.90
22503;DHT22;11418;48.118;9.992;2023-03-14T16:32:06;7.60;99.90
22503;DHT22;11418;48.118;9.992;2023-03-14T16:36:10;7.50;99.90
22503;DHT22;11418;48.118;9.992;2023-03-14T16:40:12;7.20;99.90
22503;DHT22;11418;48.118;9.992;2023-03-14T16:44:12;6.90;99.90
22503;DHT22;11418;48.118;9.992;2023-03-14T16:48:13;6.70;99.90
22503;DHT22;11418;48.118;9.992;2023-03-14T16:52:14;6.60;99.90
22503;DHT22;11418;48.118;9.992;2023-03-14T16:56:15;6.70;99.90
22503;DHT22;11418;48.118;9.992;2023-03-14T17:00:16;6.50;99.90
22503;DHT22;11418;48.118;9.992;2023-03-14T17:04:17;6.50;99.90
22503;DHT22;11418;48.118;9.992;2023-03-14T17:08:19;6.40;99.90
22503;DHT22;11418;48.118;9.992;2023-03-14T17:12:23;6.50;99.90
22503;DHT22;11418;48.118;9.992;2023-03-14T17:16:23;6.50;99.90
22503;DHT22;11418;48.118;9.992;2023-03-14T17:20:24;6.40;99.90
22503;DHT22;11418;48.118;9.992;2023-03-14T17:24:24;6.40;99.90
22503;DHT22;11418;48.118;9.992;2023-03-14T17:28:26;6.30;99.90
22503;DHT22;11418;48.118;9.992;2023-03-14T17:32:27;6.20;99.90
22503;DHT22;11418;48.118;9.992;2023-03-14T17:36:28;6.00;99.90
22503;DHT22;11418;48.118;9.992;2023-03-14T17:40:30;6.10;99.90
22503;DHT22;11418;48.118;9.992;2023-03-14T17:44:31;6.10;99.90
22503;DHT22;11418;48.118;9.992;2023-03-14T17:48:32;6.20;99.90
22503;DHT22;11418;48.118;9.992;2023-03-14T17:52:33;6.20;99.90
22503;DHT22;11418;48.118;9.992;2023-03-14T17:56:34;6.30;99.90
22503;DHT22;11418;48.118;9.992;2023-03-14T18:00:35;6.40;99.90
22503;DHT22;11418;48.118;9.992;2023-03-14T18:04:35;6.40;99.90
22503;DHT22;11418;48.118;9.992;2023-03-14T18:08:37;6.40;99.90
22503;DHT22;11418;48.118;9.992;2023-03-14T18:12:38;6.40;99.90
22503;DHT22;11418;48.118;9.992;2023-03-14T18:16:39;6.40;99.90
22503;DHT22;11418;48.118;9.992;2023-03-14T18:20:40;6.30;99.90
22503;DHT22;11418;48.118;9.992;2023-03-14T18:24:41;6.30;99.90
22503;DHT22;11418;48.118;9.992;2023-03-14T18:28:42;6.30;99.90
22503;DHT22;11418;48.118;9.992;2023-03-14T18:32:42;6.20;99.90
22503;DHT22;11418;48.118;9.992;2023-03-14T18:36:43;6.00;99.90
22503;DHT22;11418;48.118;9.992;2023-03-14T18:40:43;6.30;99.90
22503;DHT22;11418;48.118;9.992;2023-03-14T18:44:44;5.90;99.90
22503;DHT22;11418;48.118;9.992;2023-03-14T18:48:45;6.20;99.90
22503;DHT22;11418;48.118;9.992;2023-03-14T18:52:46;6.10;99.90
22503;DHT22;11418;48.118;9.992;2023-03-14T18:56:46;6.10;99.90
22503;DHT22;11418;48.118;9.992;2023-03-14T19:00:48;6.40;99.90
22503;DHT22;11418;48.118;9.992;2023-03-14T19:04:48;6.50;99.90
22503;DHT22;11418;48.118;9.992;2023-03-14T19:08:50;5.40;99.90
22503;DHT22;11418;48.118;9.992;2023-03-14T19:12:51;4.80;99.90
22503;DHT22;11418;48.118;9.992;2023-03-14T19:16:51;4.50;99.90
22503;DHT22;11418;48.118;9.992;2023-03-14T19:20:56;4.30;99.90
22503;DHT22;11418;48.118;9.992;2023-03-14T19:24:57;4.30;99.90
22503;DHT22;11418;48.118;9.992;2023-03-14T19:28:58;4.30;99.90
22503;DHT22;11418;48.118;9.992;2023-03-14T19:32:58;4.20;99.90
22503;DHT22;11418;48.118;9.992;2023-03-14T19:36:59;4.00;99.90
22503;DHT22;11418;48.118;9.992;2023-03-14T19:41:00;4.00;99.90
22503;DHT22;11418;48.118;9.992;2023-03-14T19:45:00;3.70;99.90
22503;DHT22;11418;48.118;9.992;2023-03-14T19:49:01;3.70;99.90
22503;DHT22;11418;48.118;9.992;2023-03-14T19:53:02;3.60;99.90
22503;DHT22;11418;48.118;9.992;2023-03-14T19:57:03;3.70;99.90
22503;DHT22;11418;48.118;9.992;2023-03-14T20:01:05;3.60;99.90
22503;DHT22;11418;48.118;9.992;2023-03-14T20:05:07;3.60;99.90
22503;DHT22;11418;48.118;9.992;2023-03-14T20:09:08;3.70;99.90
22503;DHT22;11418;48.118;9.992;2023-03-14T20:13:12;3.30;99.90
22503;DHT22;11418;48.118;9.992;2023-03-14T20:17:13;3.00;99.90
22503;DHT22;11418;48.118;9.992;2023-03-14T20:21:13;2.90;99.90
22503;DHT22;11418;48.118;9.992;2023-03-14T20:25:16;3.00;99.90
22503;DHT22;11418;48.118;9.992;2023-03-14T20:29:18;2.60;99.90
22503;DHT22;11418;48.118;9.992;2023-03-14T20:33:18;2.80;99.90
22503;DHT22;11418;48.118;9.992;2023-03-14T20:37:19;2.90;99.90
22503;DHT22;11418;48.118;9.992;2023-03-14T20:41:22;3.10;99.90
22503;DHT22;11418;48.118;9.992;2023-03-14T20:45:22;2.90;99.90
22503;DHT22;11418;48.118;9.992;2023-03-14T20:49:23;2.90;99.90
22503;DHT22;11418;48.118;9.992;2023-03-14T20:53:23;3.10;99.90
22503;DHT22;11418;48.118;9.992;2023-03-14T20:57:24;3.20;99.90
22503;DHT22;11418;48.118;9.992;2023-03-14T21:01:24;3.30;99.90
22503;DHT22;11418;48.118;9.992;2023-03-14T21:05:25;3.70;99.90
22503;DHT22;11418;48.118;9.992;2023-03-14T21:09:26;3.70;99.90
22503;DHT22;11418;48.118;9.992;2023-03-14T21:13:26;3.70;99.90
22503;DHT22;11418;48.118;9.992;2023-03-14T21:17:27;3.70;99.90
22503;DHT22;11418;48.118;9.992;2023-03-14T21:21:28;3.70;99.90
22503;DHT22;11418;48.118;9.992;2023-03-14T21:25:29;3.80;99.90
22503;DHT22;11418;48.118;9.992;2023-03-14T21:29:30;3.70;99.90
22503;DHT22;11418;48.118;9.992;2023-03-14T21:33:30;3.70;99.90
22503;DHT22;11418;48.118;9.992;2023-03-14T21:37:31;3.60;99.90
22503;DHT22;11418;48.118;9.992;2023-03-14T21:41:31;3.40;99.90
22503;DHT22;11418;48.118;9.992;2023-03-14T21:45:32;3.50;99.90
22503;DHT22;11418;48.118;9.992;2023-03-14T21:49:35;3.40;99.90
22503;DHT22;11418;48.118;9.992;2023-03-14T21:53:39;3.50;99.90
22503;DHT22;11418;48.118;9.992;2023-03-14T21:57:39;3.50;99.90
22503;DHT22;11418;48.118;9.992;2023-03-14T22:01:40;3.60;99.90
22503;DHT22;11418;48.118;9.992;2023-03-14T22:05:42;3.90;99.90
22503;DHT22;11418;48.118;9.992;2023-03-14T22:09:44;4.10;99.90
22503;DHT22;11418;48.118;9.992;2023-03-14T22:13:44;4.20;99.90
22503;DHT22;11418;48.118;9.992;2023-03-14T22:17:45;4.40;99.90
22503;DHT22;11418;48.118;9.992;2023-03-14T22:21:46;4.40;99.90
22503;DHT22;11418;48.118;9.992;2023-03-14T22:25:47;4.40;99.90
22503;DHT22;11418;48.118;9.992;2023-03-14T22:29:50;4.30;99.90
22503;DHT22;11418;48.118;9.992;2023-03-14T22:33:51;4.50;99.90
22503;DHT22;11418;48.118;9.992;2023-03-14T22:37:51;4.10;99.90
22503;DHT22;11418;48.118;9.992;2023-03-14T22:41:53;4.50;99.90
22503;DHT22;11418;48.118;9.992;2023-03-14T22:45:58;4.40;99.90
22503;DHT22;11418;48.118;9.992;2023-03-14T22:49:59;4.60;99.90
22503;DHT22;11418;48.118;9.992;2023-03-14T22:53:59;4.30;99.90
22503;DHT22;11418;48.118;9.992;2023-03-14T22:58:00;4.30;99.90
22503;DHT22;11418;48.118;9.992;2023-03-14T23:02:01;4.10;99.90
22503;DHT22;11418;48.118;9.992;2023-03-14T23:06:04;4.00;99.90
22503;DHT22;11418;48.118;9.992;2023-03-14T23:10:05;4.00;99.90
22503;DHT22;11418;48.118;9.992;2023-03-14T23:14:06;3.80;99.90
22503;DHT22;11418;48.118;9.992;2023-03-14T23:18:08;3.80;99.90
22503;DHT22;11418;48.118;9.992;2023-03-14T23:22:08;3.70;99.90
22503;DHT22;11418;48.118;9.992;2023-03-14T23:26:10;3.50;99.90
22503;DHT22;11418;48.118;9.992;2023-03-14T23:30:15;2.80;99.90
22503;DHT22;11418;48.118;9.992;2023-03-14T23:34:16;1.70;99.90
22503;DHT22;11418;48.118;9.992;2023-03-14T23:38:16;2.00;99.90
22503;DHT22;11418;48.118;9.992;2023-03-14T23:42:17;1.90;99.90
22503;DHT22;11418;48.118;9.992;2023-03-14T23:46:18;1.70;99.90
22503;DHT22;11418;48.118;9.992;2023-03-14T23:50:18;1.70;99.90
22503;DHT22;11418;48.118;9.992;2023-03-14T23:54:19;1.70;99.90
22503;DHT22;11418;48.118;9.992;2023-03-14T23:58:20;1.80;99.90
